createdAt,value
2022-09-29T00:00:29.747Z,43.49
2022-09-29T00:01:29.811Z,44.20
2022-09-29T00:02:29.750Z,48.99
2022-09-29T00:03:29.745Z,45.37
2022-09-29T00:04:29.700Z,48.15
2022-09-29T00:05:29.704Z,51.33
2022-09-29T00:06:29.694Z,51.04
2022-09-29T00:07:29.696Z,44.18
2022-09-29T00:08:29.682Z,43.99
2022-09-29T00:09:29.664Z,46.80
2022-09-29T00:10:29.655Z,47.89
2022-09-29T00:11:29.664Z,54.73
2022-09-29T00:12:29.634Z,49.99
2022-09-29T00:13:29.618Z,51.26
2022-09-29T00:14:29.610Z,46.20
2022-09-29T00:15:29.621Z,62.70
2022-09-29T00:16:29.696Z,57.86
2022-09-29T00:17:29.579Z,45.43
2022-09-29T00:18:29.576Z,48.37
2022-09-29T00:19:29.558Z,44.74
2022-09-29T00:20:29.554Z,44.25
2022-09-29T00:21:29.547Z,44.80
2022-09-29T00:22:29.554Z,51.67
2022-09-29T00:23:29.521Z,51.71
2022-09-29T00:24:29.518Z,49.86
2022-09-29T00:25:29.515Z,50.35
2022-09-29T00:26:29.490Z,51.96
2022-09-29T00:27:29.517Z,52.39
2022-09-29T00:28:29.473Z,47.09
2022-09-29T00:29:29.493Z,44.83
2022-09-29T00:30:29.452Z,46.11
2022-09-29T00:31:29.471Z,48.04
2022-09-29T00:32:29.444Z,49.98
2022-09-29T00:33:29.434Z,51.51
2022-09-29T00:34:29.428Z,45.32
2022-09-29T00:35:29.417Z,53.08
2022-09-29T00:36:29.406Z,62.54
2022-09-29T00:37:29.386Z,44.99
2022-09-29T00:38:29.369Z,43.79
2022-09-29T00:39:29.371Z,45.55
2022-09-29T00:40:29.433Z,54.72
2022-09-29T00:41:29.363Z,49.98
2022-09-29T00:42:29.337Z,49.79
2022-09-29T00:43:29.313Z,47.57
2022-09-29T00:44:29.322Z,48.58
2022-09-29T00:45:29.353Z,47.15
2022-09-29T00:46:29.291Z,49.81
2022-09-29T00:47:29.283Z,52.78
2022-09-29T00:48:29.295Z,48.47
2022-09-29T00:49:29.297Z,52.73
2022-09-29T00:50:29.255Z,59.36
2022-09-29T00:51:29.243Z,48.27
2022-09-29T00:52:29.238Z,49.88
2022-09-29T00:53:30.223Z,46.89
2022-09-29T00:54:29.223Z,48.75
2022-09-29T00:55:29.203Z,49.02
2022-09-29T00:56:29.195Z,46.33
2022-09-29T00:57:29.221Z,43.65
2022-09-29T00:58:29.191Z,57.25
2022-09-29T00:59:29.157Z,54.82
2022-09-29T01:00:29.202Z,47.13
2022-09-29T01:01:29.139Z,45.15
2022-09-29T01:02:29.169Z,57.71
2022-09-29T01:03:29.150Z,54.61
2022-09-29T01:04:29.108Z,54.06
2022-09-29T01:05:29.107Z,48.49
2022-09-29T01:06:29.112Z,43.32
2022-09-29T01:07:29.083Z,49.32
2022-09-29T01:08:29.074Z,48.96
2022-09-29T01:09:29.093Z,60.42
2022-09-29T01:10:29.056Z,50.16
2022-09-29T01:11:29.053Z,46.98
2022-09-29T01:12:29.036Z,44.58
2022-09-29T01:13:29.018Z,48.60
2022-09-29T01:14:29.040Z,44.33
2022-09-29T01:15:29.008Z,44.30
2022-09-29T01:16:29.111Z,61.14
2022-09-29T01:17:29.012Z,50.36
2022-09-29T01:18:28.998Z,50.17
2022-09-29T01:19:28.965Z,48.97
2022-09-29T01:20:28.977Z,55.55
2022-09-29T01:21:28.948Z,53.37
2022-09-29T01:22:28.936Z,47.05
2022-09-29T01:23:28.934Z,49.26
2022-09-29T01:24:28.943Z,51.63
2022-09-29T01:25:28.910Z,41.92
2022-09-29T01:26:28.923Z,46.20
2022-09-29T01:27:28.897Z,53.78
2022-09-29T01:28:28.891Z,44.37
2022-09-29T01:29:28.871Z,41.51
2022-09-29T01:30:28.872Z,41.30
2022-09-29T01:31:28.938Z,45.82
2022-09-29T01:32:28.847Z,45.22
2022-09-29T01:33:28.833Z,41.93
2022-09-29T01:34:28.841Z,46.22
2022-09-29T01:35:28.871Z,51.57
2022-09-29T01:36:28.818Z,50.67
2022-09-29T01:37:28.801Z,45.51
2022-09-29T01:38:28.793Z,46.13
2022-09-29T01:39:28.778Z,53.58
2022-09-29T01:40:28.855Z,57.58
2022-09-29T01:41:28.765Z,52.31
2022-09-29T01:42:28.761Z,46.47
2022-09-29T01:43:28.770Z,49.89
2022-09-29T01:44:28.749Z,50.43
2022-09-29T01:45:28.766Z,47.93
2022-09-29T01:46:28.711Z,48.54
2022-09-29T01:47:28.714Z,45.47
2022-09-29T01:48:28.725Z,49.92
2022-09-29T01:49:28.698Z,50.01
2022-09-29T01:50:28.687Z,50.36
2022-09-29T01:51:28.670Z,62.44
2022-09-29T01:52:28.670Z,47.88
2022-09-29T01:53:28.661Z,46.94
2022-09-29T01:54:28.660Z,48.16
2022-09-29T01:55:28.635Z,45.11
2022-09-29T01:56:28.634Z,55.37
2022-09-29T01:57:28.620Z,50.12
2022-09-29T01:58:28.632Z,47.31
2022-09-29T01:59:28.604Z,51.59
2022-09-29T02:00:29.611Z,64.51
2022-09-29T02:01:28.587Z,49.01
2022-09-29T02:02:28.636Z,52.79
2022-09-29T02:03:28.582Z,51.43
2022-09-29T02:04:28.549Z,49.98
2022-09-29T02:05:28.564Z,54.10
2022-09-29T02:06:28.544Z,45.05
2022-09-29T02:07:28.529Z,52.14
2022-09-29T02:08:28.510Z,56.29
2022-09-29T02:09:28.500Z,51.63
2022-09-29T02:11:00.408Z,52.69
2022-09-29T02:11:28.476Z,46.75
2022-09-29T02:12:28.468Z,51.40
2022-09-29T02:13:28.482Z,53.33
2022-09-29T02:14:28.475Z,47.36
2022-09-29T02:15:28.457Z,44.68
2022-09-29T02:16:28.482Z,44.85
2022-09-29T02:17:28.436Z,48.37
2022-09-29T02:18:28.434Z,51.39
2022-09-29T02:19:28.394Z,42.45
2022-09-29T02:20:28.402Z,47.75
2022-09-29T02:21:28.386Z,51.80
2022-09-29T02:22:28.396Z,47.16
2022-09-29T02:23:28.376Z,48.20
2022-09-29T02:24:28.349Z,51.54
2022-09-29T02:25:28.341Z,61.43
2022-09-29T02:26:28.333Z,50.66
2022-09-29T02:27:28.339Z,59.56
2022-09-29T02:28:28.317Z,54.04
2022-09-29T02:29:28.302Z,43.85
2022-09-29T02:30:28.295Z,44.44
2022-09-29T02:31:28.334Z,51.23
2022-09-29T02:32:28.297Z,50.63
2022-09-29T02:33:28.254Z,49.36
2022-09-29T02:34:28.252Z,47.94
2022-09-29T02:35:28.247Z,50.46
2022-09-29T02:36:28.245Z,52.01
2022-09-29T02:37:28.245Z,57.76
2022-09-29T02:38:28.231Z,50.53
2022-09-29T02:39:28.203Z,52.76
2022-09-29T02:40:28.272Z,52.49
2022-09-29T02:41:28.196Z,55.42
2022-09-29T02:42:28.198Z,59.95
2022-09-29T02:43:28.224Z,54.14
2022-09-29T02:44:28.156Z,64.20
2022-09-29T02:45:28.167Z,55.28
2022-09-29T02:46:28.164Z,52.62
2022-09-29T02:47:28.129Z,48.69
2022-09-29T02:48:28.121Z,53.82
2022-09-29T02:49:28.107Z,51.50
2022-09-29T02:50:28.091Z,55.66
2022-09-29T02:51:28.107Z,65.46
2022-09-29T02:52:28.083Z,52.33
2022-09-29T02:53:28.077Z,60.79
2022-09-29T02:54:28.053Z,53.39
2022-09-29T02:55:28.045Z,49.96
2022-09-29T02:56:28.070Z,49.34
2022-09-29T02:57:28.021Z,53.58
2022-09-29T02:58:28.016Z,56.86
2022-09-29T02:59:28.010Z,53.61
2022-09-29T03:00:28.000Z,47.95
2022-09-29T03:01:27.992Z,49.81
2022-09-29T03:02:28.011Z,52.54
2022-09-29T03:03:28.004Z,63.49
2022-09-29T03:04:27.952Z,54.93
2022-09-29T03:05:27.945Z,52.79
2022-09-29T03:06:27.929Z,54.93
2022-09-29T03:07:28.957Z,51.59
2022-09-29T03:08:27.923Z,57.12
2022-09-29T03:09:27.902Z,55.09
2022-09-29T03:10:30.185Z,54.64
2022-09-29T03:11:28.898Z,65.60
2022-09-29T03:12:27.889Z,55.12
2022-09-29T03:13:27.888Z,53.27
2022-09-29T03:14:27.853Z,54.78
2022-09-29T03:15:27.850Z,54.74
2022-09-29T03:16:27.898Z,53.21
2022-09-29T03:17:27.829Z,56.35
2022-09-29T03:18:27.842Z,57.44
2022-09-29T03:19:27.813Z,54.66
2022-09-29T03:20:27.801Z,51.29
2022-09-29T03:21:27.787Z,52.66
2022-09-29T03:22:27.777Z,50.62
2022-09-29T03:23:27.775Z,57.71
2022-09-29T03:24:27.762Z,55.77
2022-09-29T03:25:27.750Z,57.41
2022-09-29T03:26:27.733Z,57.51
2022-09-29T03:27:27.747Z,57.25
2022-09-29T03:28:27.735Z,53.84
2022-09-29T03:29:27.709Z,62.80
2022-09-29T03:30:27.701Z,54.09
2022-09-29T03:31:27.772Z,57.51
2022-09-29T03:32:27.681Z,55.25
2022-09-29T03:33:27.684Z,55.62
2022-09-29T03:34:27.662Z,57.29
2022-09-29T03:35:27.652Z,58.06
2022-09-29T03:36:27.654Z,54.97
2022-09-29T03:37:27.636Z,55.77
2022-09-29T03:38:27.640Z,56.38
2022-09-29T03:39:27.609Z,56.78
2022-09-29T03:40:27.657Z,59.09
2022-09-29T03:41:27.599Z,55.16
2022-09-29T03:42:27.585Z,56.91
2022-09-29T03:43:27.572Z,54.46
2022-09-29T03:44:27.567Z,56.06
2022-09-29T03:45:27.555Z,55.21
2022-09-29T03:46:27.545Z,55.73
2022-09-29T03:47:27.528Z,58.34
2022-09-29T03:48:27.557Z,55.40
2022-09-29T03:49:27.521Z,56.15
2022-09-29T03:50:27.506Z,57.32
2022-09-29T03:51:27.483Z,64.04
2022-09-29T03:52:27.475Z,54.52
2022-09-29T03:53:27.471Z,59.07
2022-09-29T03:54:27.470Z,57.83
2022-09-29T03:55:27.452Z,55.47
2022-09-29T03:56:27.447Z,56.67
2022-09-29T03:57:27.432Z,52.77
2022-09-29T03:58:27.414Z,56.63
2022-09-29T03:59:27.427Z,54.33
2022-09-29T04:00:27.395Z,57.70
2022-09-29T04:01:27.392Z,59.29
2022-09-29T04:02:27.408Z,57.81
2022-09-29T04:03:27.382Z,57.78
2022-09-29T04:04:27.360Z,58.46
2022-09-29T04:05:27.370Z,60.91
2022-09-29T04:06:27.339Z,58.95
2022-09-29T04:07:27.344Z,57.50
2022-09-29T04:08:27.319Z,57.20
2022-09-29T04:09:27.313Z,59.07
2022-09-29T04:10:27.318Z,58.38
2022-09-29T04:11:27.303Z,57.28
2022-09-29T04:12:27.274Z,57.34
2022-09-29T04:13:27.277Z,58.61
2022-09-29T04:14:27.278Z,56.91
2022-09-29T04:15:27.238Z,55.90
2022-09-29T04:16:27.263Z,58.14
2022-09-29T04:17:27.255Z,58.42
2022-09-29T04:18:27.206Z,59.64
2022-09-29T04:19:27.195Z,54.57
2022-09-29T04:20:27.198Z,55.15
2022-09-29T04:21:27.179Z,57.44
2022-09-29T04:22:27.194Z,59.00
2022-09-29T04:23:27.176Z,62.17
2022-09-29T04:24:27.149Z,55.27
2022-09-29T04:25:27.163Z,62.61
2022-09-29T04:26:27.124Z,60.08
2022-09-29T04:27:27.119Z,58.73
2022-09-29T04:28:27.134Z,59.22
2022-09-29T04:29:27.104Z,58.95
2022-09-29T04:30:27.172Z,58.53
2022-09-29T04:31:27.149Z,59.09
2022-09-29T04:32:27.074Z,57.86
2022-09-29T04:33:27.078Z,59.84
2022-09-29T04:34:27.056Z,57.53
2022-09-29T04:35:27.059Z,65.86
2022-09-29T04:36:27.038Z,59.92
2022-09-29T04:37:27.106Z,58.78
2022-09-29T04:38:27.044Z,58.79
2022-09-29T04:39:27.011Z,55.41
2022-09-29T04:40:27.025Z,58.80
2022-09-29T04:41:26.986Z,58.78
2022-09-29T04:42:26.970Z,64.30
2022-09-29T04:43:26.981Z,59.76
2022-09-29T04:44:26.959Z,58.32
2022-09-29T04:45:26.980Z,59.70
2022-09-29T04:46:26.936Z,59.60
2022-09-29T04:47:26.927Z,63.75
2022-09-29T04:48:26.932Z,64.86
2022-09-29T04:49:26.914Z,57.45
2022-09-29T04:50:27.921Z,59.48
2022-09-29T04:51:26.890Z,58.47
2022-09-29T04:52:26.873Z,59.78
2022-09-29T04:53:26.862Z,56.63
2022-09-29T04:54:26.862Z,58.64
2022-09-29T04:55:26.866Z,58.96
2022-09-29T04:56:26.854Z,58.84
2022-09-29T04:57:26.872Z,61.80
2022-09-29T04:58:26.820Z,58.98
2022-09-29T04:59:26.799Z,59.37
2022-09-29T05:00:26.800Z,59.11
2022-09-29T05:01:26.847Z,58.48
2022-09-29T05:02:26.978Z,57.45
2022-09-29T05:03:26.776Z,58.14
2022-09-29T05:04:26.758Z,57.53
2022-09-29T05:05:26.759Z,57.00
2022-09-29T05:06:26.744Z,58.40
2022-09-29T05:07:26.728Z,58.15
2022-09-29T05:08:26.741Z,59.06
2022-09-29T05:09:31.154Z,60.20
2022-09-29T05:10:28.696Z,60.53
2022-09-29T05:11:26.693Z,58.59
2022-09-29T05:12:26.675Z,59.06
2022-09-29T05:13:26.687Z,60.28
2022-09-29T05:14:26.667Z,60.29
2022-09-29T05:15:26.660Z,58.42
2022-09-29T05:16:26.680Z,59.51
2022-09-29T05:17:26.638Z,59.54
2022-09-29T05:18:26.629Z,59.82
2022-09-29T05:19:26.624Z,59.50
2022-09-29T05:20:30.760Z,59.69
2022-09-29T05:21:29.179Z,58.96
2022-09-29T05:22:27.587Z,60.36
2022-09-29T05:23:26.576Z,59.28
2022-09-29T05:24:26.638Z,61.26
2022-09-29T05:25:26.558Z,59.92
2022-09-29T05:26:26.554Z,60.02
2022-09-29T05:27:26.532Z,60.29
2022-09-29T05:28:26.525Z,60.28
2022-09-29T05:29:26.536Z,63.48
2022-09-29T05:30:26.500Z,61.55
2022-09-29T05:31:26.637Z,60.94
2022-09-29T05:32:26.483Z,61.02
2022-09-29T05:33:26.480Z,64.95
2022-09-29T05:34:26.461Z,60.19
2022-09-29T05:35:26.473Z,59.74
2022-09-29T05:36:26.448Z,61.62
2022-09-29T05:37:26.446Z,64.16
2022-09-29T05:38:26.429Z,59.91
2022-09-29T05:39:26.418Z,60.11
2022-09-29T05:40:26.453Z,59.16
2022-09-29T05:41:26.396Z,62.28
2022-09-29T05:42:26.384Z,59.54
2022-09-29T05:43:26.384Z,58.48
2022-09-29T05:44:26.366Z,63.47
2022-09-29T05:45:26.368Z,60.86
2022-09-29T05:46:26.379Z,60.12
2022-09-29T05:47:26.347Z,58.29
2022-09-29T05:48:26.337Z,59.72
2022-09-29T05:49:26.317Z,60.33
2022-09-29T05:50:26.315Z,58.78
2022-09-29T05:51:26.359Z,59.91
2022-09-29T05:52:26.295Z,59.02
2022-09-29T05:53:26.283Z,60.08
2022-09-29T05:54:26.278Z,66.88
2022-09-29T05:55:26.263Z,58.96
2022-09-29T05:56:26.259Z,59.19
2022-09-29T05:57:26.293Z,63.62
2022-09-29T05:58:26.251Z,61.01
2022-09-29T05:59:26.248Z,60.08
2022-09-29T06:00:26.229Z,59.16
2022-09-29T06:01:26.280Z,59.87
2022-09-29T06:02:26.351Z,60.46
2022-09-29T06:03:26.212Z,58.10
2022-09-29T06:04:26.210Z,60.02
2022-09-29T06:05:26.184Z,59.53
2022-09-29T06:06:26.165Z,58.63
2022-09-29T06:07:26.156Z,58.42
2022-09-29T06:08:26.167Z,59.21
2022-09-29T06:09:26.149Z,60.18
2022-09-29T06:10:26.206Z,59.03
2022-09-29T06:11:26.127Z,59.42
2022-09-29T06:12:26.106Z,58.01
2022-09-29T06:13:26.099Z,58.07
2022-09-29T06:14:26.122Z,61.41
2022-09-29T06:15:26.101Z,60.62
2022-09-29T06:16:26.109Z,60.38
2022-09-29T06:17:26.083Z,59.19
2022-09-29T06:18:26.036Z,59.84
2022-09-29T06:19:26.031Z,61.48
2022-09-29T06:20:26.016Z,61.28
2022-09-29T06:21:26.015Z,58.30
2022-09-29T06:22:26.008Z,58.65
2022-09-29T06:23:25.990Z,59.75
2022-09-29T06:24:26.013Z,62.59
2022-09-29T06:25:25.974Z,59.93
2022-09-29T06:26:25.962Z,57.92
2022-09-29T06:27:25.945Z,58.85
2022-09-29T06:28:25.936Z,57.84
2022-09-29T06:29:25.952Z,63.51
2022-09-29T06:30:25.924Z,56.36
2022-09-29T06:31:25.965Z,58.57
2022-09-29T06:32:25.905Z,63.65
2022-09-29T06:33:25.899Z,57.96
2022-09-29T06:34:25.880Z,58.56
2022-09-29T06:35:25.913Z,64.31
2022-09-29T06:36:25.871Z,61.79
2022-09-29T06:37:25.911Z,59.76
2022-09-29T06:38:25.853Z,58.03
2022-09-29T06:39:25.849Z,58.36
2022-09-29T06:40:25.917Z,58.58
2022-09-29T06:41:25.817Z,58.43
2022-09-29T06:42:25.830Z,61.17
2022-09-29T06:43:25.790Z,58.26
2022-09-29T06:44:25.799Z,56.99
2022-09-29T06:45:25.776Z,58.76
2022-09-29T06:46:25.761Z,58.24
2022-09-29T06:47:25.759Z,57.64
2022-09-29T06:48:25.763Z,57.85
2022-09-29T06:49:25.750Z,61.43
2022-09-29T06:50:25.755Z,60.65
2022-09-29T06:51:36.268Z,56.91
2022-09-29T06:52:29.977Z,63.74
2022-09-29T06:53:36.453Z,59.98
2022-09-29T06:54:26.706Z,58.82
2022-09-29T06:55:25.671Z,58.94
2022-09-29T06:56:25.671Z,57.72
2022-09-29T06:57:25.655Z,59.36
2022-09-29T06:58:25.644Z,58.88
2022-09-29T06:59:25.666Z,57.00
2022-09-29T07:00:25.632Z,63.74
2022-09-29T07:01:25.683Z,56.37
2022-09-29T07:02:25.738Z,62.12
2022-09-29T07:03:25.598Z,68.01
2022-09-29T07:04:25.584Z,57.98
2022-09-29T07:05:25.603Z,58.97
2022-09-29T07:06:25.563Z,57.98
2022-09-29T07:07:25.557Z,57.85
2022-09-29T07:08:25.537Z,60.10
2022-09-29T07:09:25.547Z,60.65
2022-09-29T07:10:25.546Z,56.74
2022-09-29T07:11:25.519Z,57.49
2022-09-29T07:12:25.523Z,60.47
2022-09-29T07:13:25.508Z,58.45
2022-09-29T07:14:25.499Z,60.68
2022-09-29T07:15:25.500Z,58.94
2022-09-29T07:16:25.575Z,59.81
2022-09-29T07:17:25.475Z,59.09
2022-09-29T07:18:25.444Z,58.54
2022-09-29T07:19:25.438Z,57.50
2022-09-29T07:20:25.420Z,59.09
2022-09-29T07:21:25.438Z,58.33
2022-09-29T07:22:25.418Z,58.82
2022-09-29T07:23:25.396Z,59.31
2022-09-29T07:24:25.417Z,58.88
2022-09-29T07:25:50.093Z,59.24
2022-09-29T07:26:27.377Z,56.43
2022-09-29T07:27:25.361Z,59.36
2022-09-29T07:28:25.354Z,63.67
2022-09-29T07:29:25.364Z,55.63
2022-09-29T07:30:34.907Z,59.41
2022-09-29T07:31:26.413Z,57.24
2022-09-29T07:32:28.386Z,57.11
2022-09-29T07:33:36.569Z,57.21
2022-09-29T07:34:26.309Z,58.48
2022-09-29T07:35:25.278Z,57.24
2022-09-29T07:36:25.291Z,66.25
2022-09-29T07:37:25.259Z,57.86
2022-09-29T07:38:25.251Z,55.73
2022-09-29T07:39:25.258Z,56.32
2022-09-29T07:40:25.316Z,57.59
2022-09-29T07:41:25.223Z,58.29
2022-09-29T07:42:25.231Z,58.60
2022-09-29T07:43:25.201Z,57.87
2022-09-29T07:44:25.206Z,59.16
2022-09-29T07:45:25.214Z,60.72
2022-09-29T07:46:25.272Z,56.66
2022-09-29T07:47:25.192Z,58.12
2022-09-29T07:48:29.170Z,58.40
2022-09-29T07:49:27.130Z,57.45
2022-09-29T07:50:25.129Z,61.03
2022-09-29T07:51:25.109Z,57.71
2022-09-29T07:52:25.134Z,57.46
2022-09-29T07:53:25.087Z,60.70
2022-09-29T07:54:29.343Z,57.89
2022-09-29T07:55:26.083Z,59.12
2022-09-29T07:56:25.094Z,55.02
2022-09-29T07:57:25.060Z,57.92
2022-09-29T07:58:25.076Z,58.05
2022-09-29T07:59:25.035Z,56.90
2022-09-29T08:00:25.035Z,55.98
2022-09-29T08:01:25.065Z,58.94
2022-09-29T08:02:25.067Z,57.79
2022-09-29T08:03:26.022Z,56.15
2022-09-29T08:04:24.996Z,59.99
2022-09-29T08:05:24.987Z,61.51
2022-09-29T08:06:24.995Z,60.48
2022-09-29T08:07:24.961Z,57.31
2022-09-29T08:08:24.963Z,56.46
2022-09-29T08:09:36.900Z,58.85
2022-09-29T08:10:53.836Z,57.20
2022-09-29T08:11:30.797Z,56.43
2022-09-29T08:12:35.823Z,56.32
2022-09-29T08:13:26.898Z,57.82
2022-09-29T08:14:24.900Z,56.66
2022-09-29T08:15:24.889Z,66.99
2022-09-29T08:16:24.903Z,59.72
2022-09-29T08:17:25.883Z,59.46
2022-09-29T08:18:24.874Z,58.38
2022-09-29T08:19:24.835Z,62.71
2022-09-29T08:20:24.841Z,62.72
2022-09-29T08:21:24.824Z,56.04
2022-09-29T08:22:24.844Z,60.37
2022-09-29T08:23:24.805Z,61.58
2022-09-29T08:24:24.789Z,63.28
2022-09-29T08:25:24.779Z,62.56
2022-09-29T08:26:38.706Z,57.29
2022-09-29T08:27:26.787Z,57.47
2022-09-29T08:28:31.620Z,57.09
2022-09-29T08:29:26.214Z,59.48
2022-09-29T08:30:24.739Z,58.76
2022-09-29T08:31:24.776Z,58.75
2022-09-29T08:32:24.753Z,55.61
2022-09-29T08:33:24.702Z,56.32
2022-09-29T08:34:24.696Z,58.31
2022-09-29T08:35:24.695Z,55.93
2022-09-29T08:36:24.670Z,57.85
2022-09-29T08:37:24.665Z,56.22
2022-09-29T08:38:24.678Z,55.94
2022-09-29T08:39:24.657Z,55.01
2022-09-29T08:40:24.717Z,55.97
2022-09-29T08:41:24.646Z,56.91
2022-09-29T08:42:24.617Z,56.71
2022-09-29T08:43:33.445Z,58.85
2022-09-29T08:44:36.812Z,58.39
2022-09-29T08:45:26.589Z,58.25
2022-09-29T08:46:34.495Z,57.71
2022-09-29T08:47:34.506Z,55.06
2022-09-29T08:48:26.586Z,56.92
2022-09-29T08:49:32.061Z,58.25
2022-09-29T08:50:26.558Z,62.29
2022-09-29T08:51:35.900Z,57.02
2022-09-29T08:52:26.518Z,56.79
2022-09-29T08:53:28.685Z,56.66
2022-09-29T08:54:35.603Z,56.39
2022-09-29T08:55:25.525Z,63.54
2022-09-29T08:56:24.483Z,57.98
2022-09-29T08:57:24.466Z,56.08
2022-09-29T08:58:24.476Z,56.73
2022-09-29T08:59:24.452Z,56.43
2022-09-29T09:00:24.455Z,55.67
2022-09-29T09:01:24.530Z,59.06
2022-09-29T09:02:24.470Z,56.39
2022-09-29T09:03:24.423Z,67.36
2022-09-29T09:04:24.392Z,57.53
2022-09-29T09:05:24.397Z,55.90
2022-09-29T09:07:24.365Z,55.62
2022-09-29T09:08:24.370Z,59.83
2022-09-29T09:09:24.356Z,56.09
2022-09-29T09:10:24.332Z,55.70
2022-09-29T09:11:24.340Z,56.63
2022-09-29T09:12:24.334Z,58.85
2022-09-29T09:13:24.315Z,57.36
2022-09-29T09:14:24.303Z,54.95
2022-09-29T09:15:24.273Z,58.76
2022-09-29T09:16:24.329Z,58.46
2022-09-29T09:17:24.286Z,57.41
2022-09-29T09:18:24.257Z,58.15
2022-09-29T09:19:24.260Z,58.10
2022-09-29T09:20:24.231Z,57.62
2022-09-29T09:21:24.229Z,58.80
2022-09-29T09:22:24.217Z,57.29
2022-09-29T09:23:24.205Z,57.09
2022-09-29T09:24:25.045Z,56.35
2022-09-29T09:25:25.207Z,59.93
2022-09-29T09:26:24.179Z,64.81
2022-09-29T09:27:24.162Z,60.11
2022-09-29T09:28:24.153Z,57.93
2022-09-29T09:29:24.149Z,64.63
2022-09-29T09:30:24.152Z,61.49
2022-09-29T09:31:24.122Z,59.13
2022-09-29T09:32:24.123Z,58.50
2022-09-29T09:33:30.867Z,59.32
2022-09-29T09:34:39.923Z,59.48
2022-09-29T09:35:26.114Z,57.26
2022-09-29T09:36:32.561Z,56.03
2022-09-29T09:37:26.075Z,56.90
2022-09-29T09:38:24.076Z,58.54
2022-09-29T09:39:24.065Z,62.36
2022-09-29T09:40:24.050Z,58.16
2022-09-29T09:41:24.039Z,55.85
2022-09-29T09:42:24.023Z,64.16
2022-09-29T09:43:24.007Z,66.00
2022-09-29T09:44:24.004Z,58.00
2022-09-29T09:45:24.009Z,59.38
2022-09-29T09:46:24.044Z,59.24
2022-09-29T09:47:23.967Z,57.74
2022-09-29T09:48:26.243Z,58.32
2022-09-29T09:49:25.948Z,57.09
2022-09-29T09:50:23.937Z,59.40
2022-09-29T09:51:23.946Z,59.42
2022-09-29T09:52:23.916Z,57.33
2022-09-29T09:53:23.900Z,55.86
2022-09-29T09:54:23.903Z,57.19
2022-09-29T09:55:23.897Z,62.44
2022-09-29T09:56:23.897Z,59.56
2022-09-29T09:57:23.898Z,59.53
2022-09-29T09:58:23.866Z,56.20
2022-09-29T09:59:23.853Z,56.91
2022-09-29T10:00:23.813Z,63.74
2022-09-29T10:01:23.924Z,63.61
2022-09-29T10:02:23.855Z,57.58
2022-09-29T10:03:23.838Z,56.67
2022-09-29T10:04:23.816Z,64.90
2022-09-29T10:05:24.789Z,56.16
2022-09-29T10:06:23.781Z,56.66
2022-09-29T10:07:23.775Z,57.45
2022-09-29T10:08:23.769Z,58.51
2022-09-29T10:09:23.852Z,56.74
2022-09-29T10:10:23.760Z,56.70
2022-09-29T10:11:23.749Z,56.00
2022-09-29T10:12:23.727Z,57.10
2022-09-29T10:13:23.717Z,59.29
2022-09-29T10:14:23.734Z,60.29
2022-09-29T10:15:23.731Z,57.46
2022-09-29T10:16:23.717Z,59.75
2022-09-29T10:17:23.685Z,65.04
2022-09-29T10:18:23.677Z,56.02
2022-09-29T10:19:23.663Z,54.58
2022-09-29T10:20:23.644Z,57.95
2022-09-29T10:21:23.657Z,59.28
2022-09-29T10:22:23.640Z,59.64
2022-09-29T10:23:23.615Z,64.30
2022-09-29T10:24:23.596Z,58.56
2022-09-29T10:25:23.591Z,60.47
2022-09-29T10:26:23.578Z,60.13
2022-09-29T10:27:23.603Z,63.64
2022-09-29T10:28:23.558Z,59.95
2022-09-29T10:29:23.548Z,57.07
2022-09-29T10:30:23.586Z,58.21
2022-09-29T10:31:23.788Z,62.94
2022-09-29T10:32:23.539Z,56.91
2022-09-29T10:33:23.529Z,57.09
2022-09-29T10:34:23.506Z,58.93
2022-09-29T10:35:23.483Z,65.28
2022-09-29T10:36:23.490Z,58.16
2022-09-29T10:37:23.476Z,58.28
2022-09-29T10:38:23.481Z,58.28
2022-09-29T10:39:23.475Z,58.62
2022-09-29T10:40:23.433Z,59.02
2022-09-29T10:41:23.434Z,62.10
2022-09-29T10:42:23.419Z,58.12
2022-09-29T10:43:23.413Z,59.25
2022-09-29T10:44:23.416Z,56.49
2022-09-29T10:45:23.413Z,56.89
2022-09-29T10:46:23.438Z,58.38
2022-09-29T10:47:23.362Z,65.00
2022-09-29T10:48:23.362Z,56.28
2022-09-29T10:49:23.340Z,59.16
2022-09-29T10:50:23.335Z,59.83
2022-09-29T10:51:23.325Z,57.95
2022-09-29T10:52:23.319Z,56.06
2022-09-29T10:53:23.319Z,61.38
2022-09-29T10:54:23.294Z,59.78
2022-09-29T10:55:23.286Z,56.09
2022-09-29T10:56:23.274Z,56.49
2022-09-29T10:57:23.285Z,58.02
2022-09-29T10:58:44.216Z,57.87
2022-09-29T10:59:25.247Z,59.24
2022-09-29T11:00:23.248Z,55.94
2022-09-29T11:01:23.276Z,58.95
2022-09-29T11:02:23.240Z,56.30
2022-09-29T11:03:23.219Z,58.26
2022-09-29T11:04:23.188Z,59.68
2022-09-29T11:05:23.200Z,57.82
2022-09-29T11:06:23.169Z,57.35
2022-09-29T11:07:23.153Z,62.12
2022-09-29T11:08:23.150Z,56.06
2022-09-29T11:09:23.244Z,56.81
2022-09-29T11:10:23.219Z,56.69
2022-09-29T11:11:23.138Z,58.77
2022-09-29T11:12:23.106Z,64.63
2022-09-29T11:13:23.116Z,57.65
2022-09-29T11:14:23.098Z,59.67
2022-09-29T11:15:23.103Z,57.92
2022-09-29T11:16:23.128Z,57.39
2022-09-29T11:17:23.058Z,54.31
2022-09-29T11:18:23.049Z,57.52
2022-09-29T11:19:23.033Z,59.86
2022-09-29T11:20:23.012Z,57.64
2022-09-29T11:21:24.038Z,57.62
2022-09-29T11:22:23.029Z,57.15
2022-09-29T11:23:23.005Z,56.48
2022-09-29T11:24:22.993Z,58.83
2022-09-29T11:25:23.035Z,58.39
2022-09-29T11:26:22.969Z,60.93
2022-09-29T11:27:22.964Z,59.56
2022-09-29T11:28:22.959Z,60.78
2022-09-29T11:29:22.958Z,57.39
2022-09-29T11:30:22.993Z,58.17
2022-09-29T11:31:22.936Z,59.82
2022-09-29T11:32:22.913Z,60.31
2022-09-29T11:33:22.906Z,53.99
2022-09-29T11:34:22.896Z,54.77
2022-09-29T11:35:22.881Z,58.48
2022-09-29T11:36:22.891Z,52.73
2022-09-29T11:37:22.914Z,52.98
2022-09-29T11:38:22.853Z,56.68
2022-09-29T11:39:22.846Z,54.26
2022-09-29T11:40:22.837Z,61.99
2022-09-29T11:41:22.831Z,55.80
2022-09-29T11:42:22.841Z,55.71
2022-09-29T11:43:22.800Z,56.96
2022-09-29T11:44:22.804Z,57.56
2022-09-29T11:45:22.805Z,53.93
2022-09-29T11:46:22.841Z,55.47
2022-09-29T11:47:22.791Z,53.41
2022-09-29T11:48:26.042Z,57.64
2022-09-29T11:49:22.768Z,65.15
2022-09-29T11:50:22.777Z,56.57
2022-09-29T11:51:22.763Z,56.20
2022-09-29T11:52:22.741Z,64.21
2022-09-29T11:53:22.708Z,57.09
2022-09-29T11:54:22.707Z,58.47
2022-09-29T11:55:22.689Z,57.87
2022-09-29T11:56:22.687Z,56.87
2022-09-29T11:57:22.689Z,58.10
2022-09-29T11:58:22.665Z,58.36
2022-09-29T11:59:22.659Z,56.87
2022-09-29T12:00:22.634Z,55.82
2022-09-29T12:01:22.633Z,63.46
2022-09-29T12:02:22.803Z,57.90
2022-09-29T12:03:22.635Z,57.30
2022-09-29T12:04:22.604Z,58.10
2022-09-29T12:05:22.595Z,57.29
2022-09-29T12:06:22.585Z,57.52
2022-09-29T12:07:22.602Z,54.89
2022-09-29T12:08:22.562Z,62.03
2022-09-29T12:09:22.793Z,58.51
2022-09-29T12:10:26.010Z,57.31
2022-09-29T12:11:47.420Z,58.33
2022-09-29T12:12:25.044Z,56.95
2022-09-29T12:13:23.510Z,54.14
2022-09-29T12:14:22.525Z,57.26
2022-09-29T12:15:22.527Z,57.07
2022-09-29T12:16:22.554Z,56.33
2022-09-29T12:17:22.485Z,57.99
2022-09-29T12:18:22.473Z,58.89
2022-09-29T12:19:22.466Z,58.87
2022-09-29T12:20:22.509Z,58.81
2022-09-29T12:22:22.428Z,56.32
2022-09-29T12:23:22.440Z,56.13
2022-09-29T12:24:22.423Z,57.64
2022-09-29T12:25:22.447Z,57.59
2022-09-29T12:26:22.386Z,56.15
2022-09-29T12:27:22.391Z,56.97
2022-09-29T12:28:22.381Z,54.37
2022-09-29T12:29:22.363Z,55.36
2022-09-29T12:30:22.343Z,56.77
2022-09-29T12:31:22.419Z,56.59
2022-09-29T12:32:22.342Z,52.86
2022-09-29T12:33:22.315Z,54.67
2022-09-29T12:34:22.308Z,55.46
2022-09-29T12:35:22.298Z,56.27
2022-09-29T12:36:22.313Z,58.22
2022-09-29T12:37:22.272Z,55.33
2022-09-29T12:38:22.268Z,55.50
2022-09-29T12:39:22.257Z,56.75
2022-09-29T12:40:22.239Z,58.73
2022-09-29T12:41:22.248Z,56.26
2022-09-29T12:42:22.248Z,55.64
2022-09-29T12:43:22.248Z,58.70
2022-09-29T12:44:22.203Z,57.16
2022-09-29T12:45:22.212Z,57.49
2022-09-29T12:46:22.247Z,57.88
2022-09-29T12:47:22.183Z,59.78
2022-09-29T12:48:22.186Z,57.50
2022-09-29T12:49:22.145Z,57.60
2022-09-29T12:50:22.229Z,57.86
2022-09-29T12:51:22.130Z,59.77
2022-09-29T12:52:22.146Z,58.15
2022-09-29T12:53:22.138Z,58.32
2022-09-29T12:54:22.271Z,57.66